sensor_id;sensor_type;location;lat;lon;timestamp;P1;durP1;ratioP1;P2;durP2;ratioP2
11522;SDS011;40093;43.224;27.910;2022-11-10T00:00:00;9.13;;;7.33;;
11522;SDS011;40093;43.224;27.910;2022-11-10T00:02:28;9.43;;;7.53;;
11522;SDS011;40093;43.224;27.910;2022-11-10T00:04:56;10.03;;;7.10;;
11522;SDS011;40093;43.224;27.910;2022-11-10T00:07:23;10.27;;;7.10;;
11522;SDS011;40093;43.224;27.910;2022-11-10T00:09:51;9.20;;;6.10;;
11522;SDS011;40093;43.224;27.910;2022-11-10T00:12:18;8.00;;;6.10;;
11522;SDS011;40093;43.224;27.910;2022-11-10T00:14:45;8.87;;;6.33;;
11522;SDS011;40093;43.224;27.910;2022-11-10T00:17:29;8.43;;;6.23;;
11522;SDS011;40093;43.224;27.910;2022-11-10T00:19:57;11.93;;;6.57;;
11522;SDS011;40093;43.224;27.910;2022-11-10T00:22:24;8.20;;;5.97;;
11522;SDS011;40093;43.224;27.910;2022-11-10T00:24:51;10.13;;;6.17;;
11522;SDS011;40093;43.224;27.910;2022-11-10T00:27:17;10.77;;;6.30;;
11522;SDS011;40093;43.224;27.910;2022-11-10T00:29:45;11.63;;;7.90;;
11522;SDS011;40093;43.224;27.910;2022-11-10T00:32:11;16.83;;;13.10;;
11522;SDS011;40093;43.224;27.910;2022-11-10T00:34:38;32.47;;;24.83;;
11522;SDS011;40093;43.224;27.910;2022-11-10T00:37:06;32.97;;;20.50;;
11522;SDS011;40093;43.224;27.910;2022-11-10T00:39:33;24.57;;;17.80;;
11522;SDS011;40093;43.224;27.910;2022-11-10T00:42:01;22.27;;;17.17;;
11522;SDS011;40093;43.224;27.910;2022-11-10T00:44:28;32.23;;;25.47;;
11522;SDS011;40093;43.224;27.910;2022-11-10T00:46:55;38.73;;;31.33;;
11522;SDS011;40093;43.224;27.910;2022-11-10T00:49:22;33.60;;;27.20;;
11522;SDS011;40093;43.224;27.910;2022-11-10T00:51:48;28.00;;;21.97;;
11522;SDS011;40093;43.224;27.910;2022-11-10T00:54:17;32.63;;;21.50;;
11522;SDS011;40093;43.224;27.910;2022-11-10T00:56:44;23.40;;;16.93;;
11522;SDS011;40093;43.224;27.910;2022-11-10T00:59:11;20.33;;;13.23;;
11522;SDS011;40093;43.224;27.910;2022-11-10T01:01:37;18.10;;;13.07;;
11522;SDS011;40093;43.224;27.910;2022-11-10T01:04:04;23.50;;;16.30;;
11522;SDS011;40093;43.224;27.910;2022-11-10T01:06:31;21.90;;;16.40;;
11522;SDS011;40093;43.224;27.910;2022-11-10T01:08:58;19.00;;;13.07;;
11522;SDS011;40093;43.224;27.910;2022-11-10T01:11:27;13.03;;;11.13;;
11522;SDS011;40093;43.224;27.910;2022-11-10T01:13:54;15.93;;;10.60;;
11522;SDS011;40093;43.224;27.910;2022-11-10T01:16:22;17.27;;;12.60;;
11522;SDS011;40093;43.224;27.910;2022-11-10T01:18:51;16.57;;;12.23;;
11522;SDS011;40093;43.224;27.910;2022-11-10T01:21:20;12.60;;;10.63;;
11522;SDS011;40093;43.224;27.910;2022-11-10T01:23:47;14.80;;;10.30;;
11522;SDS011;40093;43.224;27.910;2022-11-10T01:26:15;12.40;;;9.40;;
11522;SDS011;40093;43.224;27.910;2022-11-10T01:28:44;11.83;;;8.57;;
11522;SDS011;40093;43.224;27.910;2022-11-10T01:31:12;8.87;;;7.03;;
11522;SDS011;40093;43.224;27.910;2022-11-10T01:33:40;7.70;;;6.60;;
11522;SDS011;40093;43.224;27.910;2022-11-10T01:36:08;7.17;;;5.90;;
11522;SDS011;40093;43.224;27.910;2022-11-10T01:38:36;11.33;;;8.30;;
11522;SDS011;40093;43.224;27.910;2022-11-10T01:41:05;11.03;;;7.40;;
11522;SDS011;40093;43.224;27.910;2022-11-10T01:43:33;8.63;;;5.80;;
11522;SDS011;40093;43.224;27.910;2022-11-10T01:46:02;8.17;;;5.80;;
11522;SDS011;40093;43.224;27.910;2022-11-10T01:48:31;5.90;;;5.30;;
11522;SDS011;40093;43.224;27.910;2022-11-10T01:51:02;7.37;;;4.87;;
11522;SDS011;40093;43.224;27.910;2022-11-10T01:53:33;8.20;;;4.90;;
11522;SDS011;40093;43.224;27.910;2022-11-10T01:56:03;5.80;;;5.20;;
11522;SDS011;40093;43.224;27.910;2022-11-10T01:58:33;7.13;;;5.63;;
11522;SDS011;40093;43.224;27.910;2022-11-10T02:01:06;6.43;;;5.27;;
11522;SDS011;40093;43.224;27.910;2022-11-10T02:03:34;6.60;;;5.17;;
11522;SDS011;40093;43.224;27.910;2022-11-10T02:06:07;6.20;;;5.10;;
11522;SDS011;40093;43.224;27.910;2022-11-10T02:08:34;7.30;;;4.83;;
11522;SDS011;40093;43.224;27.910;2022-11-10T02:11:02;7.07;;;5.63;;
11522;SDS011;40093;43.224;27.910;2022-11-10T02:13:29;7.23;;;5.60;;
11522;SDS011;40093;43.224;27.910;2022-11-10T02:15:56;7.83;;;6.30;;
11522;SDS011;40093;43.224;27.910;2022-11-10T02:18:25;10.23;;;7.30;;
11522;SDS011;40093;43.224;27.910;2022-11-10T02:20:53;8.67;;;6.87;;
11522;SDS011;40093;43.224;27.910;2022-11-10T02:26:08;9.70;;;7.70;;
11522;SDS011;40093;43.224;27.910;2022-11-10T02:28:36;9.23;;;8.20;;
11522;SDS011;40093;43.224;27.910;2022-11-10T02:31:03;10.73;;;8.13;;
11522;SDS011;40093;43.224;27.910;2022-11-10T02:33:30;11.07;;;7.83;;
11522;SDS011;40093;43.224;27.910;2022-11-10T02:35:59;9.07;;;7.67;;
11522;SDS011;40093;43.224;27.910;2022-11-10T02:38:26;10.07;;;8.57;;
11522;SDS011;40093;43.224;27.910;2022-11-10T02:40:53;10.20;;;8.83;;
11522;SDS011;40093;43.224;27.910;2022-11-10T02:43:20;9.10;;;7.90;;
11522;SDS011;40093;43.224;27.910;2022-11-10T02:45:47;8.97;;;7.10;;
11522;SDS011;40093;43.224;27.910;2022-11-10T02:48:14;8.30;;;6.50;;
11522;SDS011;40093;43.224;27.910;2022-11-10T02:50:41;8.00;;;6.40;;
11522;SDS011;40093;43.224;27.910;2022-11-10T02:53:10;7.90;;;6.10;;
11522;SDS011;40093;43.224;27.910;2022-11-10T02:55:37;6.90;;;6.03;;
11522;SDS011;40093;43.224;27.910;2022-11-10T02:58:04;6.77;;;6.07;;
11522;SDS011;40093;43.224;27.910;2022-11-10T03:00:31;8.90;;;6.20;;
11522;SDS011;40093;43.224;27.910;2022-11-10T03:02:58;7.67;;;6.10;;
11522;SDS011;40093;43.224;27.910;2022-11-10T03:05:26;7.97;;;6.27;;
11522;SDS011;40093;43.224;27.910;2022-11-10T03:07:54;7.07;;;5.77;;
11522;SDS011;40093;43.224;27.910;2022-11-10T03:10:23;7.63;;;6.10;;
11522;SDS011;40093;43.224;27.910;2022-11-10T03:12:52;6.43;;;5.70;;
11522;SDS011;40093;43.224;27.910;2022-11-10T03:15:19;7.00;;;5.80;;
11522;SDS011;40093;43.224;27.910;2022-11-10T03:17:46;6.60;;;5.90;;
11522;SDS011;40093;43.224;27.910;2022-11-10T03:20:14;7.07;;;5.83;;
11522;SDS011;40093;43.224;27.910;2022-11-10T03:22:41;6.93;;;5.93;;
11522;SDS011;40093;43.224;27.910;2022-11-10T03:25:08;8.17;;;7.37;;
11522;SDS011;40093;43.224;27.910;2022-11-10T03:27:37;8.50;;;7.40;;
11522;SDS011;40093;43.224;27.910;2022-11-10T03:30:04;8.80;;;6.57;;
11522;SDS011;40093;43.224;27.910;2022-11-10T03:32:32;7.53;;;6.03;;
11522;SDS011;40093;43.224;27.910;2022-11-10T03:34:59;7.00;;;5.93;;
11522;SDS011;40093;43.224;27.910;2022-11-10T03:37:26;6.50;;;5.70;;
11522;SDS011;40093;43.224;27.910;2022-11-10T03:39:53;6.53;;;5.50;;
11522;SDS011;40093;43.224;27.910;2022-11-10T03:42:20;6.10;;;5.50;;
11522;SDS011;40093;43.224;27.910;2022-11-10T03:44:49;6.63;;;5.30;;
11522;SDS011;40093;43.224;27.910;2022-11-10T03:47:15;6.23;;;5.50;;
11522;SDS011;40093;43.224;27.910;2022-11-10T03:49:42;6.60;;;5.60;;
11522;SDS011;40093;43.224;27.910;2022-11-10T03:52:09;6.43;;;5.40;;
11522;SDS011;40093;43.224;27.910;2022-11-10T03:54:36;5.33;;;4.83;;
11522;SDS011;40093;43.224;27.910;2022-11-10T03:57:03;6.27;;;5.67;;
11522;SDS011;40093;43.224;27.910;2022-11-10T03:59:30;8.70;;;4.73;;
11522;SDS011;40093;43.224;27.910;2022-11-10T04:01:58;5.87;;;4.90;;
11522;SDS011;40093;43.224;27.910;2022-11-10T04:04:25;7.27;;;5.50;;
11522;SDS011;40093;43.224;27.910;2022-11-10T04:07:10;7.17;;;5.37;;
11522;SDS011;40093;43.224;27.910;2022-11-10T04:09:55;10.57;;;8.30;;
11522;SDS011;40093;43.224;27.910;2022-11-10T04:12:22;12.37;;;7.60;;
11522;SDS011;40093;43.224;27.910;2022-11-10T04:15:07;11.70;;;9.00;;
11522;SDS011;40093;43.224;27.910;2022-11-10T04:17:54;13.90;;;10.37;;
11522;SDS011;40093;43.224;27.910;2022-11-10T04:20:40;14.17;;;10.63;;
11522;SDS011;40093;43.224;27.910;2022-11-10T04:23:08;14.33;;;10.57;;
11522;SDS011;40093;43.224;27.910;2022-11-10T04:25:56;13.87;;;11.47;;
11522;SDS011;40093;43.224;27.910;2022-11-10T04:28:43;10.97;;;8.23;;
11522;SDS011;40093;43.224;27.910;2022-11-10T04:31:10;8.70;;;7.20;;
11522;SDS011;40093;43.224;27.910;2022-11-10T04:33:39;10.67;;;8.80;;
11522;SDS011;40093;43.224;27.910;2022-11-10T04:36:07;10.63;;;8.00;;
11522;SDS011;40093;43.224;27.910;2022-11-10T04:38:36;10.60;;;8.03;;
11522;SDS011;40093;43.224;27.910;2022-11-10T04:41:03;11.60;;;7.90;;
11522;SDS011;40093;43.224;27.910;2022-11-10T04:43:31;10.73;;;8.20;;
11522;SDS011;40093;43.224;27.910;2022-11-10T04:45:58;8.13;;;6.20;;
11522;SDS011;40093;43.224;27.910;2022-11-10T04:48:26;9.20;;;6.27;;
11522;SDS011;40093;43.224;27.910;2022-11-10T04:50:55;8.07;;;6.70;;
11522;SDS011;40093;43.224;27.910;2022-11-10T04:53:23;9.13;;;6.70;;
11522;SDS011;40093;43.224;27.910;2022-11-10T04:55:49;7.07;;;5.93;;
11522;SDS011;40093;43.224;27.910;2022-11-10T04:58:17;8.20;;;6.23;;
11522;SDS011;40093;43.224;27.910;2022-11-10T05:00:43;7.40;;;6.13;;
11522;SDS011;40093;43.224;27.910;2022-11-10T05:03:11;8.17;;;6.20;;
11522;SDS011;40093;43.224;27.910;2022-11-10T05:05:38;8.37;;;6.23;;
11522;SDS011;40093;43.224;27.910;2022-11-10T05:08:07;8.50;;;6.83;;
11522;SDS011;40093;43.224;27.910;2022-11-10T05:10:35;9.57;;;8.57;;
11522;SDS011;40093;43.224;27.910;2022-11-10T05:13:03;10.07;;;7.00;;
11522;SDS011;40093;43.224;27.910;2022-11-10T05:15:30;9.73;;;8.47;;
11522;SDS011;40093;43.224;27.910;2022-11-10T05:17:58;9.23;;;6.90;;
11522;SDS011;40093;43.224;27.910;2022-11-10T05:20:26;9.20;;;6.40;;
11522;SDS011;40093;43.224;27.910;2022-11-10T05:22:53;8.53;;;6.70;;
11522;SDS011;40093;43.224;27.910;2022-11-10T05:25:39;10.40;;;6.80;;
11522;SDS011;40093;43.224;27.910;2022-11-10T05:28:08;9.90;;;7.20;;
11522;SDS011;40093;43.224;27.910;2022-11-10T05:30:36;11.93;;;8.23;;
11522;SDS011;40093;43.224;27.910;2022-11-10T05:33:03;11.50;;;8.33;;
11522;SDS011;40093;43.224;27.910;2022-11-10T05:35:31;12.03;;;8.53;;
11522;SDS011;40093;43.224;27.910;2022-11-10T05:37:58;11.60;;;8.93;;
11522;SDS011;40093;43.224;27.910;2022-11-10T05:40:25;13.27;;;8.20;;
11522;SDS011;40093;43.224;27.910;2022-11-10T05:42:53;11.03;;;8.10;;
11522;SDS011;40093;43.224;27.910;2022-11-10T05:45:22;10.83;;;7.90;;
11522;SDS011;40093;43.224;27.910;2022-11-10T05:47:50;14.63;;;9.80;;
11522;SDS011;40093;43.224;27.910;2022-11-10T05:50:17;14.33;;;9.63;;
11522;SDS011;40093;43.224;27.910;2022-11-10T05:52:46;10.07;;;8.37;;
11522;SDS011;40093;43.224;27.910;2022-11-10T05:55:15;17.10;;;9.30;;
11522;SDS011;40093;43.224;27.910;2022-11-10T05:57:43;12.63;;;8.97;;
11522;SDS011;40093;43.224;27.910;2022-11-10T06:00:13;11.57;;;8.80;;
11522;SDS011;40093;43.224;27.910;2022-11-10T06:02:42;11.40;;;8.77;;
11522;SDS011;40093;43.224;27.910;2022-11-10T06:05:09;15.07;;;9.40;;
11522;SDS011;40093;43.224;27.910;2022-11-10T06:07:37;25.37;;;12.57;;
11522;SDS011;40093;43.224;27.910;2022-11-10T06:10:04;34.93;;;19.93;;
11522;SDS011;40093;43.224;27.910;2022-11-10T06:12:32;39.97;;;18.87;;
11522;SDS011;40093;43.224;27.910;2022-11-10T06:14:58;33.70;;;21.20;;
11522;SDS011;40093;43.224;27.910;2022-11-10T06:17:28;42.67;;;21.37;;
11522;SDS011;40093;43.224;27.910;2022-11-10T06:19:55;47.50;;;21.50;;
11522;SDS011;40093;43.224;27.910;2022-11-10T06:22:22;50.70;;;24.07;;
11522;SDS011;40093;43.224;27.910;2022-11-10T06:24:49;44.47;;;23.70;;
11522;SDS011;40093;43.224;27.910;2022-11-10T06:27:16;51.73;;;25.47;;
11522;SDS011;40093;43.224;27.910;2022-11-10T06:29:43;52.30;;;24.53;;
11522;SDS011;40093;43.224;27.910;2022-11-10T06:32:09;42.40;;;23.57;;
11522;SDS011;40093;43.224;27.910;2022-11-10T06:34:38;40.70;;;23.37;;
11522;SDS011;40093;43.224;27.910;2022-11-10T06:37:05;55.07;;;24.40;;
11522;SDS011;40093;43.224;27.910;2022-11-10T06:39:32;45.57;;;25.13;;
11522;SDS011;40093;43.224;27.910;2022-11-10T06:41:59;56.20;;;26.13;;
11522;SDS011;40093;43.224;27.910;2022-11-10T06:44:26;54.83;;;26.23;;
11522;SDS011;40093;43.224;27.910;2022-11-10T06:46:53;52.20;;;24.67;;
11522;SDS011;40093;43.224;27.910;2022-11-10T06:49:19;48.57;;;25.53;;
11522;SDS011;40093;43.224;27.910;2022-11-10T06:51:48;58.97;;;26.40;;
11522;SDS011;40093;43.224;27.910;2022-11-10T06:54:14;52.53;;;26.00;;
11522;SDS011;40093;43.224;27.910;2022-11-10T06:56:42;53.93;;;26.40;;
11522;SDS011;40093;43.224;27.910;2022-11-10T06:59:09;59.03;;;25.17;;
11522;SDS011;40093;43.224;27.910;2022-11-10T07:01:35;50.97;;;25.93;;
11522;SDS011;40093;43.224;27.910;2022-11-10T07:04:02;57.27;;;27.00;;
11522;SDS011;40093;43.224;27.910;2022-11-10T07:06:30;59.97;;;38.90;;
11522;SDS011;40093;43.224;27.910;2022-11-10T07:08:59;46.77;;;28.57;;
11522;SDS011;40093;43.224;27.910;2022-11-10T07:11:26;50.40;;;25.57;;
11522;SDS011;40093;43.224;27.910;2022-11-10T07:13:53;49.97;;;26.63;;
11522;SDS011;40093;43.224;27.910;2022-11-10T07:16:20;45.70;;;23.33;;
11522;SDS011;40093;43.224;27.910;2022-11-10T07:18:46;43.67;;;22.10;;
11522;SDS011;40093;43.224;27.910;2022-11-10T07:21:13;42.33;;;20.83;;
11522;SDS011;40093;43.224;27.910;2022-11-10T07:23:40;34.80;;;21.33;;
11522;SDS011;40093;43.224;27.910;2022-11-10T07:26:09;39.00;;;21.30;;
11522;SDS011;40093;43.224;27.910;2022-11-10T07:28:36;31.83;;;21.37;;
11522;SDS011;40093;43.224;27.910;2022-11-10T07:31:03;37.93;;;21.33;;
11522;SDS011;40093;43.224;27.910;2022-11-10T07:33:30;34.80;;;20.37;;
11522;SDS011;40093;43.224;27.910;2022-11-10T07:35:57;30.57;;;18.63;;
11522;SDS011;40093;43.224;27.910;2022-11-10T07:38:27;28.17;;;15.27;;
11522;SDS011;40093;43.224;27.910;2022-11-10T07:40:54;21.60;;;13.03;;
11522;SDS011;40093;43.224;27.910;2022-11-10T07:43:23;19.10;;;14.27;;
11522;SDS011;40093;43.224;27.910;2022-11-10T07:45:50;20.30;;;14.67;;
11522;SDS011;40093;43.224;27.910;2022-11-10T07:48:18;11.23;;;7.90;;
11522;SDS011;40093;43.224;27.910;2022-11-10T07:50:45;17.60;;;10.63;;
11522;SDS011;40093;43.224;27.910;2022-11-10T07:53:13;15.57;;;10.20;;
11522;SDS011;40093;43.224;27.910;2022-11-10T07:55:41;14.80;;;10.47;;
11522;SDS011;40093;43.224;27.910;2022-11-10T07:58:09;19.53;;;11.13;;
11522;SDS011;40093;43.224;27.910;2022-11-10T08:00:39;12.83;;;8.67;;
11522;SDS011;40093;43.224;27.910;2022-11-10T08:03:08;13.83;;;9.57;;
11522;SDS011;40093;43.224;27.910;2022-11-10T08:05:37;12.07;;;9.30;;
11522;SDS011;40093;43.224;27.910;2022-11-10T08:08:04;8.43;;;7.57;;
11522;SDS011;40093;43.224;27.910;2022-11-10T08:10:32;10.10;;;6.87;;
11522;SDS011;40093;43.224;27.910;2022-11-10T08:13:00;6.67;;;4.83;;
11522;SDS011;40093;43.224;27.910;2022-11-10T08:15:29;5.77;;;4.20;;
11522;SDS011;40093;43.224;27.910;2022-11-10T08:17:59;4.23;;;3.50;;
11522;SDS011;40093;43.224;27.910;2022-11-10T08:20:26;4.90;;;3.63;;
11522;SDS011;40093;43.224;27.910;2022-11-10T08:22:57;3.70;;;3.40;;
11522;SDS011;40093;43.224;27.910;2022-11-10T08:25:24;4.73;;;3.70;;
11522;SDS011;40093;43.224;27.910;2022-11-10T08:27:55;4.33;;;3.50;;
11522;SDS011;40093;43.224;27.910;2022-11-10T08:30:24;6.63;;;3.70;;
11522;SDS011;40093;43.224;27.910;2022-11-10T08:32:55;4.57;;;3.23;;
11522;SDS011;40093;43.224;27.910;2022-11-10T08:35:24;4.57;;;2.70;;
11522;SDS011;40093;43.224;27.910;2022-11-10T08:37:52;4.50;;;3.20;;
11522;SDS011;40093;43.224;27.910;2022-11-10T08:40:19;3.77;;;2.37;;
11522;SDS011;40093;43.224;27.910;2022-11-10T08:42:47;3.00;;;2.70;;
11522;SDS011;40093;43.224;27.910;2022-11-10T08:45:14;3.40;;;3.10;;
11522;SDS011;40093;43.224;27.910;2022-11-10T08:47:41;2.90;;;2.60;;
11522;SDS011;40093;43.224;27.910;2022-11-10T08:50:09;3.43;;;2.90;;
11522;SDS011;40093;43.224;27.910;2022-11-10T08:52:37;5.07;;;3.27;;
11522;SDS011;40093;43.224;27.910;2022-11-10T08:55:04;5.10;;;3.90;;
11522;SDS011;40093;43.224;27.910;2022-11-10T08:57:31;3.33;;;2.67;;
11522;SDS011;40093;43.224;27.910;2022-11-10T08:59:58;4.20;;;2.90;;
11522;SDS011;40093;43.224;27.910;2022-11-10T09:02:25;6.47;;;3.20;;
11522;SDS011;40093;43.224;27.910;2022-11-10T09:04:52;7.97;;;5.83;;
11522;SDS011;40093;43.224;27.910;2022-11-10T09:07:19;3.97;;;3.53;;
11522;SDS011;40093;43.224;27.910;2022-11-10T09:09:47;4.57;;;2.93;;
11522;SDS011;40093;43.224;27.910;2022-11-10T09:12:14;4.43;;;3.80;;
11522;SDS011;40093;43.224;27.910;2022-11-10T09:14:41;3.93;;;2.80;;
11522;SDS011;40093;43.224;27.910;2022-11-10T09:17:08;2.93;;;2.70;;
11522;SDS011;40093;43.224;27.910;2022-11-10T09:19:35;4.93;;;2.47;;
11522;SDS011;40093;43.224;27.910;2022-11-10T09:22:02;3.13;;;2.83;;
11522;SDS011;40093;43.224;27.910;2022-11-10T09:24:28;4.97;;;3.30;;
11522;SDS011;40093;43.224;27.910;2022-11-10T09:26:57;3.53;;;3.03;;
11522;SDS011;40093;43.224;27.910;2022-11-10T09:29:23;4.17;;;3.00;;
11522;SDS011;40093;43.224;27.910;2022-11-10T09:31:50;4.60;;;3.00;;
11522;SDS011;40093;43.224;27.910;2022-11-10T09:34:17;4.73;;;3.27;;
11522;SDS011;40093;43.224;27.910;2022-11-10T09:36:44;3.63;;;3.30;;
11522;SDS011;40093;43.224;27.910;2022-11-10T09:39:11;5.03;;;3.30;;
11522;SDS011;40093;43.224;27.910;2022-11-10T09:41:39;3.20;;;2.90;;
11522;SDS011;40093;43.224;27.910;2022-11-10T09:44:12;3.67;;;3.33;;
11522;SDS011;40093;43.224;27.910;2022-11-10T09:46:45;3.67;;;3.37;;
11522;SDS011;40093;43.224;27.910;2022-11-10T09:49:21;3.73;;;3.23;;
11522;SDS011;40093;43.224;27.910;2022-11-10T09:51:53;4.03;;;3.20;;
11522;SDS011;40093;43.224;27.910;2022-11-10T09:54:34;3.10;;;2.80;;
11522;SDS011;40093;43.224;27.910;2022-11-10T09:57:06;4.57;;;3.43;;
11522;SDS011;40093;43.224;27.910;2022-11-10T09:59:40;4.13;;;3.47;;
11522;SDS011;40093;43.224;27.910;2022-11-10T10:02:11;4.43;;;3.20;;
11522;SDS011;40093;43.224;27.910;2022-11-10T10:04:56;3.23;;;2.70;;
11522;SDS011;40093;43.224;27.910;2022-11-10T10:07:34;4.10;;;3.23;;
11522;SDS011;40093;43.224;27.910;2022-11-10T10:10:10;3.27;;;2.70;;
11522;SDS011;40093;43.224;27.910;2022-11-10T10:15:32;5.73;;;3.47;;
11522;SDS011;40093;43.224;27.910;2022-11-10T10:18:14;4.50;;;2.97;;
11522;SDS011;40093;43.224;27.910;2022-11-10T10:20:55;3.90;;;3.13;;
11522;SDS011;40093;43.224;27.910;2022-11-10T10:23:32;3.77;;;3.27;;
11522;SDS011;40093;43.224;27.910;2022-11-10T10:26:00;3.57;;;3.27;;
11522;SDS011;40093;43.224;27.910;2022-11-10T10:28:29;3.67;;;3.10;;
11522;SDS011;40093;43.224;27.910;2022-11-10T10:31:06;5.70;;;3.43;;
11522;SDS011;40093;43.224;27.910;2022-11-10T10:33:41;5.07;;;3.33;;
11522;SDS011;40093;43.224;27.910;2022-11-10T10:36:11;4.00;;;3.60;;
11522;SDS011;40093;43.224;27.910;2022-11-10T10:38:41;5.70;;;3.80;;
11522;SDS011;40093;43.224;27.910;2022-11-10T10:41:12;4.40;;;3.83;;
11522;SDS011;40093;43.224;27.910;2022-11-10T10:43:49;4.23;;;3.30;;
11522;SDS011;40093;43.224;27.910;2022-11-10T10:46:19;9.20;;;4.00;;
11522;SDS011;40093;43.224;27.910;2022-11-10T10:49:04;5.20;;;3.60;;
11522;SDS011;40093;43.224;27.910;2022-11-10T10:51:39;4.43;;;3.47;;
11522;SDS011;40093;43.224;27.910;2022-11-10T10:54:21;3.50;;;3.17;;
11522;SDS011;40093;43.224;27.910;2022-11-10T10:56:49;4.93;;;3.50;;
11522;SDS011;40093;43.224;27.910;2022-11-10T10:59:27;3.40;;;3.10;;
11522;SDS011;40093;43.224;27.910;2022-11-10T11:01:56;4.10;;;3.40;;
11522;SDS011;40093;43.224;27.910;2022-11-10T11:04:31;5.70;;;3.97;;
11522;SDS011;40093;43.224;27.910;2022-11-10T11:07:00;4.30;;;3.40;;
11522;SDS011;40093;43.224;27.910;2022-11-10T11:09:29;3.57;;;3.00;;
11522;SDS011;40093;43.224;27.910;2022-11-10T11:12:06;3.63;;;3.30;;
11522;SDS011;40093;43.224;27.910;2022-11-10T11:14:36;4.13;;;2.83;;
11522;SDS011;40093;43.224;27.910;2022-11-10T11:17:11;3.63;;;3.33;;
11522;SDS011;40093;43.224;27.910;2022-11-10T11:19:42;3.83;;;3.50;;
11522;SDS011;40093;43.224;27.910;2022-11-10T11:25:15;4.20;;;3.40;;
11522;SDS011;40093;43.224;27.910;2022-11-10T11:27:50;3.60;;;3.30;;
11522;SDS011;40093;43.224;27.910;2022-11-10T11:30:27;3.67;;;3.30;;
11522;SDS011;40093;43.224;27.910;2022-11-10T11:33:08;5.43;;;3.20;;
11522;SDS011;40093;43.224;27.910;2022-11-10T11:35:52;3.90;;;3.60;;
11522;SDS011;40093;43.224;27.910;2022-11-10T11:38:29;4.87;;;3.60;;
11522;SDS011;40093;43.224;27.910;2022-11-10T11:41:00;4.10;;;3.30;;
11522;SDS011;40093;43.224;27.910;2022-11-10T11:46:41;4.00;;;3.03;;
11522;SDS011;40093;43.224;27.910;2022-11-10T11:52:32;3.67;;;3.30;;
11522;SDS011;40093;43.224;27.910;2022-11-10T11:55:15;4.57;;;3.63;;
11522;SDS011;40093;43.224;27.910;2022-11-10T11:57:52;4.23;;;3.30;;
11522;SDS011;40093;43.224;27.910;2022-11-10T12:00:34;3.83;;;3.07;;
11522;SDS011;40093;43.224;27.910;2022-11-10T12:03:16;3.20;;;2.90;;
11522;SDS011;40093;43.224;27.910;2022-11-10T12:09:12;3.97;;;3.33;;
11522;SDS011;40093;43.224;27.910;2022-11-10T12:11:50;4.67;;;3.80;;
11522;SDS011;40093;43.224;27.910;2022-11-10T12:14:30;5.20;;;3.70;;
11522;SDS011;40093;43.224;27.910;2022-11-10T12:17:11;3.30;;;3.00;;
11522;SDS011;40093;43.224;27.910;2022-11-10T12:19:47;3.53;;;3.20;;
11522;SDS011;40093;43.224;27.910;2022-11-10T12:22:21;3.80;;;3.40;;
11522;SDS011;40093;43.224;27.910;2022-11-10T12:24:58;3.70;;;3.40;;
11522;SDS011;40093;43.224;27.910;2022-11-10T12:27:39;3.77;;;3.27;;
11522;SDS011;40093;43.224;27.910;2022-11-10T12:30:11;3.10;;;2.90;;
11522;SDS011;40093;43.224;27.910;2022-11-10T12:32:39;3.93;;;3.33;;
11522;SDS011;40093;43.224;27.910;2022-11-10T12:35:13;3.60;;;3.30;;
11522;SDS011;40093;43.224;27.910;2022-11-10T12:37:46;3.43;;;3.13;;
11522;SDS011;40093;43.224;27.910;2022-11-10T12:40:20;3.53;;;3.20;;
11522;SDS011;40093;43.224;27.910;2022-11-10T12:42:51;3.90;;;3.30;;
11522;SDS011;40093;43.224;27.910;2022-11-10T12:45:23;3.50;;;3.20;;
11522;SDS011;40093;43.224;27.910;2022-11-10T12:47:53;3.87;;;3.57;;
11522;SDS011;40093;43.224;27.910;2022-11-10T12:50:24;3.83;;;3.50;;
11522;SDS011;40093;43.224;27.910;2022-11-10T12:53:02;5.13;;;3.97;;
11522;SDS011;40093;43.224;27.910;2022-11-10T12:55:40;4.77;;;3.97;;
11522;SDS011;40093;43.224;27.910;2022-11-10T12:58:10;5.20;;;3.60;;
11522;SDS011;40093;43.224;27.910;2022-11-10T13:00:40;4.33;;;3.60;;
11522;SDS011;40093;43.224;27.910;2022-11-10T13:03:13;3.73;;;3.10;;
11522;SDS011;40093;43.224;27.910;2022-11-10T13:05:53;5.03;;;3.93;;
11522;SDS011;40093;43.224;27.910;2022-11-10T13:08:24;4.33;;;3.33;;
11522;SDS011;40093;43.224;27.910;2022-11-10T13:10:56;3.87;;;3.20;;
11522;SDS011;40093;43.224;27.910;2022-11-10T13:13:27;4.70;;;3.37;;
11522;SDS011;40093;43.224;27.910;2022-11-10T13:15:55;3.90;;;3.23;;
11522;SDS011;40093;43.224;27.910;2022-11-10T13:18:23;5.87;;;3.80;;
11522;SDS011;40093;43.224;27.910;2022-11-10T13:21:06;4.10;;;3.63;;
11522;SDS011;40093;43.224;27.910;2022-11-10T13:26:46;3.93;;;3.47;;
11522;SDS011;40093;43.224;27.910;2022-11-10T13:32:21;4.37;;;3.97;;
11522;SDS011;40093;43.224;27.910;2022-11-10T13:34:53;4.63;;;3.87;;
11522;SDS011;40093;43.224;27.910;2022-11-10T13:40:24;4.07;;;3.43;;
11522;SDS011;40093;43.224;27.910;2022-11-10T13:45:47;5.00;;;4.00;;
11522;SDS011;40093;43.224;27.910;2022-11-10T13:48:31;3.60;;;3.30;;
11522;SDS011;40093;43.224;27.910;2022-11-10T13:51:06;5.57;;;4.10;;
11522;SDS011;40093;43.224;27.910;2022-11-10T13:53:43;5.70;;;3.80;;
11522;SDS011;40093;43.224;27.910;2022-11-10T13:56:20;5.00;;;3.70;;
11522;SDS011;40093;43.224;27.910;2022-11-10T13:59:02;4.10;;;3.70;;
11522;SDS011;40093;43.224;27.910;2022-11-10T14:01:42;9.90;;;8.33;;
11522;SDS011;40093;43.224;27.910;2022-11-10T14:04:17;4.57;;;4.17;;
11522;SDS011;40093;43.224;27.910;2022-11-10T14:07:03;7.73;;;4.80;;
11522;SDS011;40093;43.224;27.910;2022-11-10T14:09:38;5.70;;;5.10;;
11522;SDS011;40093;43.224;27.910;2022-11-10T14:12:12;3.93;;;3.57;;
11522;SDS011;40093;43.224;27.910;2022-11-10T14:14:50;3.90;;;3.50;;
11522;SDS011;40093;43.224;27.910;2022-11-10T14:17:21;5.53;;;4.03;;
11522;SDS011;40093;43.224;27.910;2022-11-10T14:19:51;5.57;;;4.67;;
11522;SDS011;40093;43.224;27.910;2022-11-10T14:22:20;4.30;;;3.90;;
11522;SDS011;40093;43.224;27.910;2022-11-10T14:24:55;4.63;;;4.23;;
11522;SDS011;40093;43.224;27.910;2022-11-10T14:27:27;6.30;;;4.50;;
11522;SDS011;40093;43.224;27.910;2022-11-10T14:32:55;7.40;;;4.20;;
11522;SDS011;40093;43.224;27.910;2022-11-10T14:35:25;5.10;;;3.70;;
11522;SDS011;40093;43.224;27.910;2022-11-10T14:37:56;5.10;;;4.57;;
11522;SDS011;40093;43.224;27.910;2022-11-10T14:40:24;5.83;;;4.00;;
11522;SDS011;40093;43.224;27.910;2022-11-10T14:42:52;4.33;;;3.70;;
11522;SDS011;40093;43.224;27.910;2022-11-10T14:45:21;5.70;;;4.37;;
11522;SDS011;40093;43.224;27.910;2022-11-10T14:47:50;5.77;;;4.00;;
11522;SDS011;40093;43.224;27.910;2022-11-10T14:50:19;7.03;;;4.57;;
11522;SDS011;40093;43.224;27.910;2022-11-10T14:52:49;7.33;;;4.03;;
11522;SDS011;40093;43.224;27.910;2022-11-10T14:55:18;6.47;;;5.30;;
11522;SDS011;40093;43.224;27.910;2022-11-10T14:57:48;7.33;;;5.13;;
11522;SDS011;40093;43.224;27.910;2022-11-10T15:00:18;9.13;;;5.03;;
11522;SDS011;40093;43.224;27.910;2022-11-10T15:02:53;6.70;;;4.90;;
11522;SDS011;40093;43.224;27.910;2022-11-10T15:05:22;6.93;;;5.00;;
11522;SDS011;40093;43.224;27.910;2022-11-10T15:07:50;8.83;;;5.90;;
11522;SDS011;40093;43.224;27.910;2022-11-10T15:10:21;15.97;;;9.97;;
11522;SDS011;40093;43.224;27.910;2022-11-10T15:12:59;17.83;;;9.13;;
11522;SDS011;40093;43.224;27.910;2022-11-10T15:15:29;15.53;;;8.63;;
11522;SDS011;40093;43.224;27.910;2022-11-10T15:17:56;13.37;;;8.40;;